sensor_id;sensor_type;location;lat;lon;timestamp;temperature;humidity
13174;DHT22;6652;48.802;9.190;2024-03-23T00:56:04;9.70;99.90
13174;DHT22;6652;48.802;9.190;2024-03-23T00:58:31;9.80;99.90
13174;DHT22;6652;48.802;9.190;2024-03-23T01:00:57;9.70;99.90
13174;DHT22;6652;48.802;9.190;2024-03-23T01:03:23;9.70;99.90
13174;DHT22;6652;48.802;9.190;2024-03-23T01:05:49;9.70;99.90
13174;DHT22;6652;48.802;9.190;2024-03-23T01:08:16;9.60;99.90
13174;DHT22;6652;48.802;9.190;2024-03-23T01:10:54;9.60;99.90
13174;DHT22;6652;48.802;9.190;2024-03-23T01:13:21;9.70;99.90
13174;DHT22;6652;48.802;9.190;2024-03-23T01:15:48;9.70;99.90
13174;DHT22;6652;48.802;9.190;2024-03-23T01:18:16;9.80;99.90
13174;DHT22;6652;48.802;9.190;2024-03-23T01:20:42;9.90;99.90
13174;DHT22;6652;48.802;9.190;2024-03-23T01:23:09;10.00;99.90
13174;DHT22;6652;48.802;9.190;2024-03-23T01:25:34;9.90;99.90
13174;DHT22;6652;48.802;9.190;2024-03-23T01:28:03;9.90;99.90
13174;DHT22;6652;48.802;9.190;2024-03-23T01:30:29;10.00;99.90
13174;DHT22;6652;48.802;9.190;2024-03-23T01:32:56;10.00;99.90
13174;DHT22;6652;48.802;9.190;2024-03-23T01:35:22;10.10;99.90
13174;DHT22;6652;48.802;9.190;2024-03-23T01:37:49;10.10;99.90
13174;DHT22;6652;48.802;9.190;2024-03-23T01:40:16;10.20;99.90
13174;DHT22;6652;48.802;9.190;2024-03-23T01:42:55;10.30;99.90
13174;DHT22;6652;48.802;9.190;2024-03-23T01:45:23;10.40;99.90
13174;DHT22;6652;48.802;9.190;2024-03-23T01:47:51;10.40;99.90
13174;DHT22;6652;48.802;9.190;2024-03-23T01:50:17;10.50;99.90
13174;DHT22;6652;48.802;9.190;2024-03-23T01:52:44;10.60;99.90
13174;DHT22;6652;48.802;9.190;2024-03-23T01:55:10;10.70;99.90
13174;DHT22;6652;48.802;9.190;2024-03-23T01:57:37;10.80;99.90
13174;DHT22;6652;48.802;9.190;2024-03-23T02:00:04;10.80;99.90
13174;DHT22;6652;48.802;9.190;2024-03-23T02:02:33;10.90;99.90
13174;DHT22;6652;48.802;9.190;2024-03-23T02:04:59;11.00;99.90
13174;DHT22;6652;48.802;9.190;2024-03-23T02:07:26;11.10;99.90
13174;DHT22;6652;48.802;9.190;2024-03-23T02:09:52;11.10;99.90
13174;DHT22;6652;48.802;9.190;2024-03-23T02:12:20;11.10;99.90
13174;DHT22;6652;48.802;9.190;2024-03-23T02:14:46;11.20;99.90
13174;DHT22;6652;48.802;9.190;2024-03-23T02:17:13;11.30;99.90
13174;DHT22;6652;48.802;9.190;2024-03-23T02:19:40;11.40;99.90
13174;DHT22;6652;48.802;9.190;2024-03-23T02:22:07;11.40;99.90
13174;DHT22;6652;48.802;9.190;2024-03-23T02:24:37;11.00;99.90
13174;DHT22;6652;48.802;9.190;2024-03-23T02:27:04;11.50;99.90
13174;DHT22;6652;48.802;9.190;2024-03-23T02:29:30;11.50;99.90
13174;DHT22;6652;48.802;9.190;2024-03-23T02:31:57;11.60;99.90
13174;DHT22;6652;48.802;9.190;2024-03-23T02:34:24;11.60;99.90
13174;DHT22;6652;48.802;9.190;2024-03-23T02:36:51;11.60;99.90
13174;DHT22;6652;48.802;9.190;2024-03-23T02:39:16;11.60;99.90
13174;DHT22;6652;48.802;9.190;2024-03-23T02:41:45;11.60;99.90
13174;DHT22;6652;48.802;9.190;2024-03-23T02:44:11;11.60;99.90
13174;DHT22;6652;48.802;9.190;2024-03-23T02:46:38;11.70;99.90
13174;DHT22;6652;48.802;9.190;2024-03-23T02:49:04;11.60;99.90
13174;DHT22;6652;48.802;9.190;2024-03-23T02:51:31;11.60;99.90
13174;DHT22;6652;48.802;9.190;2024-03-23T02:53:57;11.60;99.90
13174;DHT22;6652;48.802;9.190;2024-03-23T02:56:24;12.40;99.90
13174;DHT22;6652;48.802;9.190;2024-03-23T02:58:51;11.70;99.90
13174;DHT22;6652;48.802;9.190;2024-03-23T03:01:18;11.70;99.90
13174;DHT22;6652;48.802;9.190;2024-03-23T03:03:44;11.70;99.90
13174;DHT22;6652;48.802;9.190;2024-03-23T03:06:10;11.70;99.90
13174;DHT22;6652;48.802;9.190;2024-03-23T03:08:36;12.10;99.90
13174;DHT22;6652;48.802;9.190;2024-03-23T03:11:03;11.60;99.90
13174;DHT22;6652;48.802;9.190;2024-03-23T03:13:29;11.60;99.90
13174;DHT22;6652;48.802;9.190;2024-03-23T03:15:57;11.50;99.90
13174;DHT22;6652;48.802;9.190;2024-03-23T03:18:24;11.50;99.90
13174;DHT22;6652;48.802;9.190;2024-03-23T03:20:55;11.50;99.90
13174;DHT22;6652;48.802;9.190;2024-03-23T03:23:21;11.40;99.90
13174;DHT22;6652;48.802;9.190;2024-03-23T03:25:48;11.50;99.90
13174;DHT22;6652;48.802;9.190;2024-03-23T03:28:14;11.50;99.90
13174;DHT22;6652;48.802;9.190;2024-03-23T03:30:41;11.50;99.90
13174;DHT22;6652;48.802;9.190;2024-03-23T03:33:08;11.50;99.90
13174;DHT22;6652;48.802;9.190;2024-03-23T03:35:35;11.40;99.90
13174;DHT22;6652;48.802;9.190;2024-03-23T03:38:01;11.40;99.90
13174;DHT22;6652;48.802;9.190;2024-03-23T03:40:28;11.40;99.90
13174;DHT22;6652;48.802;9.190;2024-03-23T03:42:54;11.40;99.90
13174;DHT22;6652;48.802;9.190;2024-03-23T03:45:21;11.40;99.90
13174;DHT22;6652;48.802;9.190;2024-03-23T03:47:47;11.90;99.90
13174;DHT22;6652;48.802;9.190;2024-03-23T03:50:16;11.40;99.90
13174;DHT22;6652;48.802;9.190;2024-03-23T03:52:41;11.30;99.90
13174;DHT22;6652;48.802;9.190;2024-03-23T03:55:13;11.30;99.90
13174;DHT22;6652;48.802;9.190;2024-03-23T03:57:39;11.30;99.90
13174;DHT22;6652;48.802;9.190;2024-03-23T04:00:07;11.90;99.90
13174;DHT22;6652;48.802;9.190;2024-03-23T04:02:36;11.30;99.90
13174;DHT22;6652;48.802;9.190;2024-03-23T04:05:03;11.30;99.90
13174;DHT22;6652;48.802;9.190;2024-03-23T04:07:31;11.30;99.90
13174;DHT22;6652;48.802;9.190;2024-03-23T04:09:59;11.30;99.90
13174;DHT22;6652;48.802;9.190;2024-03-23T04:12:25;11.20;99.90
13174;DHT22;6652;48.802;9.190;2024-03-23T04:14:52;11.10;99.90
13174;DHT22;6652;48.802;9.190;2024-03-23T04:17:18;11.10;99.90
13174;DHT22;6652;48.802;9.190;2024-03-23T04:19:46;11.20;99.90
13174;DHT22;6652;48.802;9.190;2024-03-23T04:22:12;11.20;99.90
13174;DHT22;6652;48.802;9.190;2024-03-23T04:24:41;11.20;99.90
13174;DHT22;6652;48.802;9.190;2024-03-23T04:27:07;11.20;99.90
13174;DHT22;6652;48.802;9.190;2024-03-23T04:29:34;11.30;99.90
13174;DHT22;6652;48.802;9.190;2024-03-23T04:32:00;11.30;99.90
13174;DHT22;6652;48.802;9.190;2024-03-23T04:34:27;11.80;99.90
13174;DHT22;6652;48.802;9.190;2024-03-23T04:36:53;11.50;99.90
13174;DHT22;6652;48.802;9.190;2024-03-23T04:39:20;11.50;99.90
13174;DHT22;6652;48.802;9.190;2024-03-23T04:41:48;11.40;99.90
13174;DHT22;6652;48.802;9.190;2024-03-23T04:44:15;11.20;99.90
13174;DHT22;6652;48.802;9.190;2024-03-23T04:46:42;11.10;99.90
13174;DHT22;6652;48.802;9.190;2024-03-23T04:49:09;11.10;99.90
13174;DHT22;6652;48.802;9.190;2024-03-23T04:51:36;11.00;99.90
13174;DHT22;6652;48.802;9.190;2024-03-23T04:54:04;10.90;99.90
13174;DHT22;6652;48.802;9.190;2024-03-23T04:56:31;10.90;99.90
13174;DHT22;6652;48.802;9.190;2024-03-23T04:59:00;10.90;99.90
13174;DHT22;6652;48.802;9.190;2024-03-23T05:01:27;10.90;99.90
13174;DHT22;6652;48.802;9.190;2024-03-23T05:03:54;11.00;99.90
13174;DHT22;6652;48.802;9.190;2024-03-23T05:06:20;10.90;99.90
13174;DHT22;6652;48.802;9.190;2024-03-23T05:08:47;10.90;99.90
13174;DHT22;6652;48.802;9.190;2024-03-23T05:11:13;10.90;99.90
13174;DHT22;6652;48.802;9.190;2024-03-23T05:13:39;10.90;99.90
13174;DHT22;6652;48.802;9.190;2024-03-23T05:16:07;11.00;99.90
13174;DHT22;6652;48.802;9.190;2024-03-23T05:18:34;10.80;99.90
13174;DHT22;6652;48.802;9.190;2024-03-23T05:21:00;10.80;99.90
13174;DHT22;6652;48.802;9.190;2024-03-23T05:23:28;10.90;99.90
13174;DHT22;6652;48.802;9.190;2024-03-23T05:25:55;10.80;99.90
13174;DHT22;6652;48.802;9.190;2024-03-23T05:28:22;10.90;99.90
13174;DHT22;6652;48.802;9.190;2024-03-23T05:30:50;10.80;99.90
13174;DHT22;6652;48.802;9.190;2024-03-23T05:33:20;10.80;99.90
13174;DHT22;6652;48.802;9.190;2024-03-23T05:35:46;10.80;99.90
13174;DHT22;6652;48.802;9.190;2024-03-23T05:38:13;10.70;99.90
13174;DHT22;6652;48.802;9.190;2024-03-23T05:40:39;10.70;99.90
13174;DHT22;6652;48.802;9.190;2024-03-23T05:43:06;10.60;99.90
13174;DHT22;6652;48.802;9.190;2024-03-23T05:45:32;10.50;99.90
13174;DHT22;6652;48.802;9.190;2024-03-23T05:47:59;10.60;99.90
13174;DHT22;6652;48.802;9.190;2024-03-23T05:50:26;10.60;99.90
13174;DHT22;6652;48.802;9.190;2024-03-23T05:52:53;10.60;99.90
13174;DHT22;6652;48.802;9.190;2024-03-23T05:55:19;10.60;99.90
13174;DHT22;6652;48.802;9.190;2024-03-23T05:57:45;10.50;99.90
13174;DHT22;6652;48.802;9.190;2024-03-23T06:00:12;10.50;99.90
13174;DHT22;6652;48.802;9.190;2024-03-23T06:02:42;10.40;99.90
13174;DHT22;6652;48.802;9.190;2024-03-23T06:05:10;10.40;99.90
13174;DHT22;6652;48.802;9.190;2024-03-23T06:07:38;10.30;99.90
13174;DHT22;6652;48.802;9.190;2024-03-23T06:10:06;10.30;99.90
13174;DHT22;6652;48.802;9.190;2024-03-23T06:12:32;10.20;99.90
13174;DHT22;6652;48.802;9.190;2024-03-23T06:14:59;10.20;99.90
13174;DHT22;6652;48.802;9.190;2024-03-23T06:17:25;10.20;99.90
13174;DHT22;6652;48.802;9.190;2024-03-23T06:19:52;10.20;99.90
13174;DHT22;6652;48.802;9.190;2024-03-23T06:22:17;10.10;99.90
13174;DHT22;6652;48.802;9.190;2024-03-23T06:24:46;10.10;99.90
13174;DHT22;6652;48.802;9.190;2024-03-23T06:27:11;10.10;99.90
13174;DHT22;6652;48.802;9.190;2024-03-23T06:29:38;10.10;99.90
13174;DHT22;6652;48.802;9.190;2024-03-23T06:32:04;10.20;99.90
13174;DHT22;6652;48.802;9.190;2024-03-23T06:34:31;10.20;99.90
13174;DHT22;6652;48.802;9.190;2024-03-23T06:36:57;10.20;99.90
13174;DHT22;6652;48.802;9.190;2024-03-23T06:39:24;10.20;99.90
13174;DHT22;6652;48.802;9.190;2024-03-23T06:41:53;10.20;99.90
13174;DHT22;6652;48.802;9.190;2024-03-23T06:44:20;10.20;99.90
13174;DHT22;6652;48.802;9.190;2024-03-23T06:46:46;10.10;99.90
13174;DHT22;6652;48.802;9.190;2024-03-23T06:49:14;10.10;99.90
13174;DHT22;6652;48.802;9.190;2024-03-23T06:51:40;10.10;99.90
13174;DHT22;6652;48.802;9.190;2024-03-23T06:54:08;10.20;99.90
13174;DHT22;6652;48.802;9.190;2024-03-23T06:56:33;10.10;99.90
13174;DHT22;6652;48.802;9.190;2024-03-23T06:59:02;10.10;99.90
13174;DHT22;6652;48.802;9.190;2024-03-23T07:01:27;10.20;99.90
13174;DHT22;6652;48.802;9.190;2024-03-23T07:03:55;10.20;99.90
13174;DHT22;6652;48.802;9.190;2024-03-23T07:06:21;10.20;99.90
13174;DHT22;6652;48.802;9.190;2024-03-23T07:08:48;10.20;99.90
13174;DHT22;6652;48.802;9.190;2024-03-23T07:11:18;10.30;99.90
13174;DHT22;6652;48.802;9.190;2024-03-23T07:13:45;10.40;99.90
13174;DHT22;6652;48.802;9.190;2024-03-23T07:16:13;10.50;99.90
13174;DHT22;6652;48.802;9.190;2024-03-23T07:18:40;10.40;99.90
13174;DHT22;6652;48.802;9.190;2024-03-23T07:21:05;10.40;99.90
13174;DHT22;6652;48.802;9.190;2024-03-23T07:23:33;10.50;99.90
13174;DHT22;6652;48.802;9.190;2024-03-23T07:25:59;11.90;99.90
13174;DHT22;6652;48.802;9.190;2024-03-23T07:28:26;13.20;99.90
13174;DHT22;6652;48.802;9.190;2024-03-23T07:31:03;13.80;99.90
13174;DHT22;6652;48.802;9.190;2024-03-23T07:33:32;13.50;99.90
13174;DHT22;6652;48.802;9.190;2024-03-23T07:35:58;13.10;99.90
13174;DHT22;6652;48.802;9.190;2024-03-23T07:38:27;12.70;99.90
13174;DHT22;6652;48.802;9.190;2024-03-23T07:41:02;12.30;99.90
13174;DHT22;6652;48.802;9.190;2024-03-23T07:43:29;11.80;99.90
13174;DHT22;6652;48.802;9.190;2024-03-23T07:45:55;11.30;99.90
13174;DHT22;6652;48.802;9.190;2024-03-23T07:48:22;11.00;99.90
13174;DHT22;6652;48.802;9.190;2024-03-23T07:50:58;10.70;99.90
13174;DHT22;6652;48.802;9.190;2024-03-23T07:53:25;10.50;99.90
13174;DHT22;6652;48.802;9.190;2024-03-23T07:55:58;10.20;99.90
13174;DHT22;6652;48.802;9.190;2024-03-23T07:58:25;10.10;99.90
13174;DHT22;6652;48.802;9.190;2024-03-23T08:00:52;9.90;99.90
13174;DHT22;6652;48.802;9.190;2024-03-23T08:03:19;9.90;99.90
13174;DHT22;6652;48.802;9.190;2024-03-23T08:05:45;9.90;99.90
13174;DHT22;6652;48.802;9.190;2024-03-23T08:08:13;10.00;99.90
13174;DHT22;6652;48.802;9.190;2024-03-23T08:10:47;10.10;99.90
13174;DHT22;6652;48.802;9.190;2024-03-23T08:13:14;10.80;99.90
13174;DHT22;6652;48.802;9.190;2024-03-23T08:15:40;10.70;99.90
13174;DHT22;6652;48.802;9.190;2024-03-23T08:18:07;10.50;99.90
13174;DHT22;6652;48.802;9.190;2024-03-23T08:20:33;10.40;99.90
13174;DHT22;6652;48.802;9.190;2024-03-23T08:23:00;10.30;99.90
13174;DHT22;6652;48.802;9.190;2024-03-23T08:25:27;10.10;99.90
13174;DHT22;6652;48.802;9.190;2024-03-23T08:27:54;10.00;99.90
13174;DHT22;6652;48.802;9.190;2024-03-23T08:30:20;11.00;99.90
13174;DHT22;6652;48.802;9.190;2024-03-23T08:32:46;9.90;99.90
13174;DHT22;6652;48.802;9.190;2024-03-23T08:35:12;9.80;99.90
13174;DHT22;6652;48.802;9.190;2024-03-23T08:37:39;9.80;99.90
13174;DHT22;6652;48.802;9.190;2024-03-23T08:40:06;9.60;99.90
13174;DHT22;6652;48.802;9.190;2024-03-23T08:42:35;9.50;99.90
13174;DHT22;6652;48.802;9.190;2024-03-23T08:45:01;9.50;99.90
13174;DHT22;6652;48.802;9.190;2024-03-23T08:47:28;9.50;99.90
13174;DHT22;6652;48.802;9.190;2024-03-23T08:49:54;9.60;99.90
13174;DHT22;6652;48.802;9.190;2024-03-23T08:52:20;10.50;99.90
13174;DHT22;6652;48.802;9.190;2024-03-23T08:54:48;9.60;99.90
13174;DHT22;6652;48.802;9.190;2024-03-23T08:57:15;9.70;99.90
13174;DHT22;6652;48.802;9.190;2024-03-23T08:59:42;9.60;99.90
13174;DHT22;6652;48.802;9.190;2024-03-23T09:02:09;9.10;99.90
13174;DHT22;6652;48.802;9.190;2024-03-23T09:04:35;8.90;99.90
13174;DHT22;6652;48.802;9.190;2024-03-23T09:07:02;9.00;99.90
13174;DHT22;6652;48.802;9.190;2024-03-23T09:09:28;9.10;99.90
13174;DHT22;6652;48.802;9.190;2024-03-23T09:11:54;9.30;99.90
13174;DHT22;6652;48.802;9.190;2024-03-23T09:14:22;9.20;99.90
13174;DHT22;6652;48.802;9.190;2024-03-23T09:16:51;9.40;99.90
13174;DHT22;6652;48.802;9.190;2024-03-23T09:19:17;9.20;99.90
13174;DHT22;6652;48.802;9.190;2024-03-23T09:21:44;9.40;99.90
13174;DHT22;6652;48.802;9.190;2024-03-23T09:24:10;9.40;99.90
13174;DHT22;6652;48.802;9.190;2024-03-23T09:26:36;9.90;99.90
13174;DHT22;6652;48.802;9.190;2024-03-23T09:29:02;9.90;99.90
13174;DHT22;6652;48.802;9.190;2024-03-23T09:31:29;10.20;99.90
13174;DHT22;6652;48.802;9.190;2024-03-23T09:33:58;10.20;99.90
13174;DHT22;6652;48.802;9.190;2024-03-23T09:36:25;10.10;99.90
13174;DHT22;6652;48.802;9.190;2024-03-23T09:38:51;10.10;99.90
13174;DHT22;6652;48.802;9.190;2024-03-23T09:41:18;10.80;99.90
13174;DHT22;6652;48.802;9.190;2024-03-23T09:43:43;11.20;99.90
13174;DHT22;6652;48.802;9.190;2024-03-23T09:46:13;11.50;99.90
13174;DHT22;6652;48.802;9.190;2024-03-23T09:48:39;11.50;99.90
13174;DHT22;6652;48.802;9.190;2024-03-23T09:51:08;11.40;99.90
13174;DHT22;6652;48.802;9.190;2024-03-23T09:53:34;11.40;99.90
13174;DHT22;6652;48.802;9.190;2024-03-23T09:56:01;11.20;99.90
13174;DHT22;6652;48.802;9.190;2024-03-23T09:58:28;11.30;99.90
13174;DHT22;6652;48.802;9.190;2024-03-23T10:00:55;11.50;99.90
13174;DHT22;6652;48.802;9.190;2024-03-23T10:03:21;11.60;99.90
13174;DHT22;6652;48.802;9.190;2024-03-23T10:06:00;11.70;99.90
13174;DHT22;6652;48.802;9.190;2024-03-23T10:08:29;11.70;99.90
13174;DHT22;6652;48.802;9.190;2024-03-23T10:10:56;11.60;99.90
13174;DHT22;6652;48.802;9.190;2024-03-23T10:13:25;11.70;99.90
13174;DHT22;6652;48.802;9.190;2024-03-23T10:15:57;12.30;99.90
13174;DHT22;6652;48.802;9.190;2024-03-23T10:18:24;14.90;99.90
13174;DHT22;6652;48.802;9.190;2024-03-23T10:20:52;15.40;99.90
13174;DHT22;6652;48.802;9.190;2024-03-23T10:23:33;14.60;99.60
13174;DHT22;6652;48.802;9.190;2024-03-23T10:26:12;14.10;99.90
13174;DHT22;6652;48.802;9.190;2024-03-23T10:28:54;15.50;98.80
13174;DHT22;6652;48.802;9.190;2024-03-23T10:31:22;16.10;98.40
13174;DHT22;6652;48.802;9.190;2024-03-23T10:33:48;17.30;96.00
13174;DHT22;6652;48.802;9.190;2024-03-23T10:36:16;16.90;92.70
13174;DHT22;6652;48.802;9.190;2024-03-23T10:38:44;15.50;93.00
13174;DHT22;6652;48.802;9.190;2024-03-23T10:41:11;16.00;94.00
13174;DHT22;6652;48.802;9.190;2024-03-23T10:43:37;15.20;93.10
13174;DHT22;6652;48.802;9.190;2024-03-23T10:46:05;14.30;93.60
13174;DHT22;6652;48.802;9.190;2024-03-23T10:48:32;13.60;94.60
13174;DHT22;6652;48.802;9.190;2024-03-23T10:50:59;13.30;95.70
13174;DHT22;6652;48.802;9.190;2024-03-23T10:53:27;12.70;96.00
13174;DHT22;6652;48.802;9.190;2024-03-23T10:55:57;12.20;96.80
13174;DHT22;6652;48.802;9.190;2024-03-23T10:58:26;11.60;99.90
13174;DHT22;6652;48.802;9.190;2024-03-23T11:00:54;10.90;99.90
13174;DHT22;6652;48.802;9.190;2024-03-23T11:03:30;10.50;99.90
13174;DHT22;6652;48.802;9.190;2024-03-23T11:05:57;10.00;99.90
13174;DHT22;6652;48.802;9.190;2024-03-23T11:08:34;9.60;99.90
13174;DHT22;6652;48.802;9.190;2024-03-23T11:11:17;9.20;99.90
13174;DHT22;6652;48.802;9.190;2024-03-23T11:13:43;8.90;99.90
13174;DHT22;6652;48.802;9.190;2024-03-23T11:16:14;8.90;99.90
13174;DHT22;6652;48.802;9.190;2024-03-23T11:18:40;8.90;99.90
13174;DHT22;6652;48.802;9.190;2024-03-23T11:21:07;9.20;99.90
13174;DHT22;6652;48.802;9.190;2024-03-23T11:23:33;9.80;99.90
13174;DHT22;6652;48.802;9.190;2024-03-23T11:26:00;10.20;99.90
13174;DHT22;6652;48.802;9.190;2024-03-23T11:28:28;10.40;99.90
13174;DHT22;6652;48.802;9.190;2024-03-23T11:30:55;10.70;99.90
13174;DHT22;6652;48.802;9.190;2024-03-23T11:33:21;10.90;99.90
13174;DHT22;6652;48.802;9.190;2024-03-23T11:35:48;11.00;99.90
13174;DHT22;6652;48.802;9.190;2024-03-23T11:38:14;11.10;99.90
13174;DHT22;6652;48.802;9.190;2024-03-23T11:40:46;11.40;99.90
13174;DHT22;6652;48.802;9.190;2024-03-23T11:43:14;11.70;99.90
13174;DHT22;6652;48.802;9.190;2024-03-23T11:45:43;12.10;99.90
13174;DHT22;6652;48.802;9.190;2024-03-23T11:48:11;12.60;99.90
13174;DHT22;6652;48.802;9.190;2024-03-23T11:50:39;13.00;99.90
13174;DHT22;6652;48.802;9.190;2024-03-23T11:53:13;13.30;99.90
13174;DHT22;6652;48.802;9.190;2024-03-23T11:55:47;13.30;99.90
13174;DHT22;6652;48.802;9.190;2024-03-23T11:58:14;13.40;99.90
13174;DHT22;6652;48.802;9.190;2024-03-23T12:00:49;13.30;99.90
13174;DHT22;6652;48.802;9.190;2024-03-23T12:03:16;13.00;99.90
13174;DHT22;6652;48.802;9.190;2024-03-23T12:05:48;13.00;99.90
13174;DHT22;6652;48.802;9.190;2024-03-23T12:08:21;13.00;99.90
13174;DHT22;6652;48.802;9.190;2024-03-23T12:10:51;12.70;99.90
13174;DHT22;6652;48.802;9.190;2024-03-23T12:13:18;12.40;99.90
13174;DHT22;6652;48.802;9.190;2024-03-23T12:15:49;12.30;99.90
13174;DHT22;6652;48.802;9.190;2024-03-23T12:18:15;12.60;99.90
13174;DHT22;6652;48.802;9.190;2024-03-23T12:20:42;12.30;99.90
13174;DHT22;6652;48.802;9.190;2024-03-23T12:23:09;13.30;99.90
13174;DHT22;6652;48.802;9.190;2024-03-23T12:25:37;12.20;99.90
13174;DHT22;6652;48.802;9.190;2024-03-23T12:28:03;12.20;99.90
13174;DHT22;6652;48.802;9.190;2024-03-23T12:30:33;12.30;99.90
13174;DHT22;6652;48.802;9.190;2024-03-23T12:33:00;12.40;99.90
13174;DHT22;6652;48.802;9.190;2024-03-23T12:35:28;12.50;99.90
13174;DHT22;6652;48.802;9.190;2024-03-23T12:37:54;12.50;99.90
13174;DHT22;6652;48.802;9.190;2024-03-23T12:40:21;12.50;99.70
13174;DHT22;6652;48.802;9.190;2024-03-23T12:42:47;12.80;99.70
13174;DHT22;6652;48.802;9.190;2024-03-23T12:45:15;12.40;99.50
13174;DHT22;6652;48.802;9.190;2024-03-23T12:47:41;12.50;99.90
13174;DHT22;6652;48.802;9.190;2024-03-23T12:50:09;12.40;99.40
13174;DHT22;6652;48.802;9.190;2024-03-23T12:52:36;12.30;99.80
13174;DHT22;6652;48.802;9.190;2024-03-23T12:55:03;12.30;99.90
13174;DHT22;6652;48.802;9.190;2024-03-23T12:57:31;12.10;99.50
13174;DHT22;6652;48.802;9.190;2024-03-23T12:59:58;11.90;99.80
13174;DHT22;6652;48.802;9.190;2024-03-23T13:02:24;12.10;99.90
13174;DHT22;6652;48.802;9.190;2024-03-23T13:04:51;12.50;99.90
13174;DHT22;6652;48.802;9.190;2024-03-23T13:07:19;12.90;99.90
13174;DHT22;6652;48.802;9.190;2024-03-23T13:09:49;13.10;99.40
13174;DHT22;6652;48.802;9.190;2024-03-23T13:12:15;13.20;99.20
13174;DHT22;6652;48.802;9.190;2024-03-23T13:14:44;13.30;98.70
13174;DHT22;6652;48.802;9.190;2024-03-23T13:17:10;13.30;98.70
13174;DHT22;6652;48.802;9.190;2024-03-23T13:19:37;13.20;98.50
13174;DHT22;6652;48.802;9.190;2024-03-23T13:22:03;13.00;97.20
13174;DHT22;6652;48.802;9.190;2024-03-23T13:24:32;12.90;97.60
13174;DHT22;6652;48.802;9.190;2024-03-23T13:26:58;13.00;97.50
13174;DHT22;6652;48.802;9.190;2024-03-23T13:29:25;13.00;97.20
13174;DHT22;6652;48.802;9.190;2024-03-23T13:31:52;12.80;96.00
13174;DHT22;6652;48.802;9.190;2024-03-23T13:34:19;12.60;95.90
13174;DHT22;6652;48.802;9.190;2024-03-23T13:36:46;12.60;95.60
13174;DHT22;6652;48.802;9.190;2024-03-23T13:39:14;12.60;95.50
13174;DHT22;6652;48.802;9.190;2024-03-23T13:41:44;12.50;94.50
13174;DHT22;6652;48.802;9.190;2024-03-23T13:44:12;12.50;95.10
13174;DHT22;6652;48.802;9.190;2024-03-23T13:46:39;12.90;95.50
13174;DHT22;6652;48.802;9.190;2024-03-23T13:49:11;12.80;95.40
13174;DHT22;6652;48.802;9.190;2024-03-23T13:51:46;13.10;94.70
13174;DHT22;6652;48.802;9.190;2024-03-23T13:54:13;12.90;92.80
13174;DHT22;6652;48.802;9.190;2024-03-23T13:56:41;13.60;93.80
13174;DHT22;6652;48.802;9.190;2024-03-23T13:59:10;11.80;92.50
13174;DHT22;6652;48.802;9.190;2024-03-23T14:01:37;13.00;93.10
13174;DHT22;6652;48.802;9.190;2024-03-23T14:04:07;11.10;92.70
13174;DHT22;6652;48.802;9.190;2024-03-23T14:06:33;12.30;93.90
13174;DHT22;6652;48.802;9.190;2024-03-23T14:09:01;11.90;98.10
13174;DHT22;6652;48.802;9.190;2024-03-23T14:11:29;11.10;99.90
13174;DHT22;6652;48.802;9.190;2024-03-23T14:13:59;10.30;99.90
13174;DHT22;6652;48.802;9.190;2024-03-23T14:16:25;9.70;99.90
13174;DHT22;6652;48.802;9.190;2024-03-23T14:18:53;9.20;99.90
13174;DHT22;6652;48.802;9.190;2024-03-23T14:21:19;8.70;99.90
13174;DHT22;6652;48.802;9.190;2024-03-23T14:23:46;8.30;99.90
13174;DHT22;6652;48.802;9.190;2024-03-23T14:26:11;7.70;99.90
13174;DHT22;6652;48.802;9.190;2024-03-23T14:28:39;7.70;99.90
13174;DHT22;6652;48.802;9.190;2024-03-23T14:31:07;7.40;99.90
13174;DHT22;6652;48.802;9.190;2024-03-23T14:33:36;7.50;99.90
13174;DHT22;6652;48.802;9.190;2024-03-23T14:36:03;8.60;99.90
13174;DHT22;6652;48.802;9.190;2024-03-23T14:38:30;8.60;99.90
13174;DHT22;6652;48.802;9.190;2024-03-23T14:40:58;9.10;99.90
13174;DHT22;6652;48.802;9.190;2024-03-23T14:43:26;9.40;99.90
13174;DHT22;6652;48.802;9.190;2024-03-23T14:46:13;9.50;99.90
13174;DHT22;6652;48.802;9.190;2024-03-23T14:48:42;9.60;99.90
13174;DHT22;6652;48.802;9.190;2024-03-23T14:51:08;9.60;99.90
13174;DHT22;6652;48.802;9.190;2024-03-23T14:53:36;9.40;99.90
13174;DHT22;6652;48.802;9.190;2024-03-23T14:56:04;9.30;99.90
13174;DHT22;6652;48.802;9.190;2024-03-23T14:58:31;9.10;99.90
13174;DHT22;6652;48.802;9.190;2024-03-23T15:01:00;8.90;99.90
13174;DHT22;6652;48.802;9.190;2024-03-23T15:06:06;8.90;99.90
13174;DHT22;6652;48.802;9.190;2024-03-23T15:08:34;8.90;99.90
13174;DHT22;6652;48.802;9.190;2024-03-23T15:11:01;9.90;99.90
13174;DHT22;6652;48.802;9.190;2024-03-23T15:13:30;9.50;99.90
13174;DHT22;6652;48.802;9.190;2024-03-23T15:15:59;10.60;99.90
13174;DHT22;6652;48.802;9.190;2024-03-23T15:18:29;9.70;99.90
13174;DHT22;6652;48.802;9.190;2024-03-23T15:20:55;9.70;99.90
13174;DHT22;6652;48.802;9.190;2024-03-23T15:23:24;9.60;99.90
13174;DHT22;6652;48.802;9.190;2024-03-23T15:25:56;9.60;99.90
13174;DHT22;6652;48.802;9.190;2024-03-23T15:28:24;9.50;99.90
13174;DHT22;6652;48.802;9.190;2024-03-23T15:30:52;9.50;99.90
13174;DHT22;6652;48.802;9.190;2024-03-23T15:33:20;9.30;99.90
13174;DHT22;6652;48.802;9.190;2024-03-23T15:35:48;9.20;99.90
13174;DHT22;6652;48.802;9.190;2024-03-23T15:38:15;9.20;99.90
13174;DHT22;6652;48.802;9.190;2024-03-23T15:40:50;9.20;99.90
13174;DHT22;6652;48.802;9.190;2024-03-23T15:43:18;9.20;99.90
13174;DHT22;6652;48.802;9.190;2024-03-23T15:45:44;9.20;99.90
13174;DHT22;6652;48.802;9.190;2024-03-23T15:48:10;9.10;99.90
13174;DHT22;6652;48.802;9.190;2024-03-23T15:50:37;9.20;99.90
13174;DHT22;6652;48.802;9.190;2024-03-23T15:53:06;9.90;99.90
13174;DHT22;6652;48.802;9.190;2024-03-23T15:55:34;9.40;99.90
13174;DHT22;6652;48.802;9.190;2024-03-23T15:58:02;9.50;99.90
13174;DHT22;6652;48.802;9.190;2024-03-23T16:00:28;9.50;99.90
13174;DHT22;6652;48.802;9.190;2024-03-23T16:02:55;9.50;99.90
13174;DHT22;6652;48.802;9.190;2024-03-23T16:05:21;9.50;99.90
13174;DHT22;6652;48.802;9.190;2024-03-23T16:07:49;9.40;99.90
13174;DHT22;6652;48.802;9.190;2024-03-23T16:10:15;9.20;99.90
13174;DHT22;6652;48.802;9.190;2024-03-23T16:12:41;9.50;99.90
13174;DHT22;6652;48.802;9.190;2024-03-23T16:15:10;9.40;99.90
13174;DHT22;6652;48.802;9.190;2024-03-23T16:17:37;9.50;99.90
13174;DHT22;6652;48.802;9.190;2024-03-23T16:20:05;9.50;99.90
13174;DHT22;6652;48.802;9.190;2024-03-23T16:22:34;9.50;99.90
13174;DHT22;6652;48.802;9.190;2024-03-23T16:25:00;9.40;99.90
13174;DHT22;6652;48.802;9.190;2024-03-23T16:27:27;9.30;99.90
13174;DHT22;6652;48.802;9.190;2024-03-23T16:29:53;9.20;99.90
13174;DHT22;6652;48.802;9.190;2024-03-23T16:32:21;9.00;99.90
13174;DHT22;6652;48.802;9.190;2024-03-23T16:34:49;8.80;99.90
13174;DHT22;6652;48.802;9.190;2024-03-23T16:37:15;8.80;99.90
13174;DHT22;6652;48.802;9.190;2024-03-23T16:39:41;8.80;99.90
13174;DHT22;6652;48.802;9.190;2024-03-23T16:42:10;9.60;99.90
13174;DHT22;6652;48.802;9.190;2024-03-23T16:44:36;8.70;99.90
13174;DHT22;6652;48.802;9.190;2024-03-23T16:47:05;8.60;99.90
13174;DHT22;6652;48.802;9.190;2024-03-23T16:49:32;8.60;99.90